createdAt,value
2023-02-11T00:03:58.764Z,6.32
2023-02-11T00:08:01.815Z,6.28
2023-02-11T00:12:06.629Z,6.25
2023-02-11T00:16:11.537Z,6.14
2023-02-11T00:20:14.677Z,6.09
2023-02-11T00:24:17.721Z,6.00
2023-02-11T00:28:22.117Z,5.99
2023-02-11T00:32:25.202Z,6.00
2023-02-11T00:36:30.431Z,5.95
2023-02-11T00:40:33.551Z,5.87
2023-02-11T00:44:37.923Z,5.89
2023-02-11T00:48:41.333Z,5.90
2023-02-11T00:52:44.448Z,5.92
2023-02-11T00:56:47.463Z,5.95
2023-02-11T01:00:51.851Z,6.01
2023-02-11T01:04:54.921Z,6.00
2023-02-11T01:08:58.026Z,6.02
2023-02-11T01:13:01.686Z,6.05
2023-02-11T01:17:07.617Z,6.05
2023-02-11T01:21:11.140Z,6.07
2023-02-11T01:25:14.548Z,5.96
2023-02-11T01:29:17.628Z,6.00
2023-02-11T01:33:23.443Z,5.94
2023-02-11T01:37:26.806Z,5.96
2023-02-11T01:41:29.828Z,5.94
2023-02-11T01:45:59.818Z,5.94
2023-02-11T01:50:04.847Z,5.96
2023-02-11T01:54:28.684Z,5.92
2023-02-11T01:58:35.401Z,5.91
2023-02-11T02:02:46.156Z,5.90
2023-02-11T02:06:56.510Z,5.85
2023-02-11T02:11:01.052Z,5.83
2023-02-11T02:15:21.201Z,5.82
2023-02-11T02:19:59.573Z,5.78
2023-02-11T02:25:01.083Z,5.81
2023-02-11T02:33:42.977Z,5.83
2023-02-11T02:37:56.360Z,5.83
2023-02-11T02:41:59.546Z,5.79
2023-02-11T02:46:12.952Z,5.83
2023-02-11T02:50:23.124Z,5.81
2023-02-11T02:55:11.011Z,5.87
2023-02-11T02:59:28.456Z,5.92
2023-02-11T03:03:41.827Z,5.92
2023-02-11T03:07:53.348Z,5.92
2023-02-11T03:11:57.179Z,5.93
2023-02-11T03:16:03.295Z,5.95
2023-02-11T03:20:11.238Z,5.93
2023-02-11T03:24:20.028Z,5.93
2023-02-11T03:28:30.524Z,5.94
2023-02-11T03:32:37.889Z,5.96
2023-02-11T03:36:47.369Z,5.95
2023-02-11T03:40:53.075Z,5.93
2023-02-11T03:45:04.976Z,5.91
2023-02-11T03:49:12.628Z,5.88
2023-02-11T03:53:16.975Z,5.87
2023-02-11T03:57:21.485Z,5.88
2023-02-11T04:01:24.766Z,5.89
2023-02-11T04:05:27.993Z,5.92
2023-02-11T04:09:31.004Z,5.93
2023-02-11T04:13:35.393Z,5.95
2023-02-11T04:17:38.886Z,5.96
2023-02-11T04:21:41.950Z,5.97
2023-02-11T04:25:45.079Z,5.95
2023-02-11T04:29:49.734Z,5.97
2023-02-11T04:33:52.779Z,6.00
2023-02-11T04:37:55.959Z,6.00
2023-02-11T04:41:59.037Z,5.96
2023-02-11T04:46:03.571Z,5.86
2023-02-11T04:50:07.152Z,5.79
2023-02-11T04:54:10.167Z,5.75
2023-02-11T04:58:13.237Z,5.74
2023-02-11T05:02:17.673Z,5.74
2023-02-11T05:06:20.728Z,5.77
2023-02-11T05:10:23.953Z,5.84
2023-02-11T05:14:27.019Z,5.91
2023-02-11T05:18:31.384Z,5.94
2023-02-11T05:22:34.511Z,5.99
2023-02-11T05:26:37.637Z,6.00
2023-02-11T05:30:40.776Z,6.07
2023-02-11T05:34:45.352Z,6.04
2023-02-11T05:38:48.415Z,6.08
2023-02-11T05:42:51.434Z,6.11
2023-02-11T05:46:54.467Z,6.07
2023-02-11T05:50:59.108Z,6.06
2023-02-11T05:55:02.132Z,6.07
2023-02-11T05:59:05.223Z,6.05
2023-02-11T06:03:08.277Z,6.03
2023-02-11T06:07:12.719Z,6.04
2023-02-11T06:11:16.361Z,6.03
2023-02-11T06:15:19.650Z,6.02
2023-02-11T06:19:22.712Z,6.02
2023-02-11T06:23:29.981Z,6.02
2023-02-11T06:27:33.474Z,6.05
2023-02-11T06:31:38.637Z,6.03
2023-02-11T06:35:41.854Z,6.03
2023-02-11T06:39:47.821Z,6.02
2023-02-11T06:43:51.271Z,6.03
2023-02-11T06:47:54.604Z,6.04
2023-02-11T06:51:57.780Z,6.03
2023-02-11T06:56:05.625Z,6.06
2023-02-11T07:00:10.349Z,6.07
2023-02-11T07:04:14.770Z,6.10
2023-02-11T07:08:17.779Z,6.12
2023-02-11T07:12:22.152Z,6.09
2023-02-11T07:16:25.276Z,6.13
2023-02-11T07:20:28.391Z,6.13
2023-02-11T07:24:31.551Z,6.13
2023-02-11T07:28:38.267Z,6.17
2023-02-11T07:32:41.318Z,6.17
2023-02-11T07:36:45.214Z,6.18
2023-02-11T07:40:48.259Z,6.20
2023-02-11T07:44:52.628Z,6.26
2023-02-11T07:48:56.572Z,6.24
2023-02-11T07:52:59.592Z,6.28
2023-02-11T07:57:02.610Z,6.32
2023-02-11T08:01:08.952Z,6.33
2023-02-11T08:05:12.125Z,6.33
2023-02-11T08:09:17.521Z,6.38
2023-02-11T08:13:20.579Z,6.37
2023-02-11T08:17:24.958Z,6.38
2023-02-11T08:21:28.784Z,6.41
2023-02-11T08:25:31.820Z,6.44
2023-02-11T08:29:34.848Z,6.49
2023-02-11T08:33:40.467Z,6.52
2023-02-11T08:37:43.512Z,6.54
2023-02-11T08:41:48.891Z,6.59
2023-02-11T08:45:52.285Z,6.53
2023-02-11T08:49:56.890Z,6.61
2023-02-11T08:54:00.618Z,6.64
2023-02-11T08:58:03.787Z,6.65
2023-02-11T09:02:07.383Z,6.70
2023-02-11T09:06:13.880Z,6.69
2023-02-11T09:10:17.111Z,6.70
2023-02-11T09:14:23.402Z,6.71
2023-02-11T09:18:26.961Z,6.77
2023-02-11T09:22:31.289Z,6.76
2023-02-11T09:26:36.082Z,6.82
2023-02-11T09:30:39.868Z,6.84
2023-02-11T09:34:42.950Z,6.82
2023-02-11T09:38:47.921Z,6.81
2023-02-11T09:42:56.097Z,6.82
2023-02-11T09:47:03.083Z,6.87
2023-02-11T09:51:07.491Z,6.88
2023-02-11T09:55:20.437Z,6.90
2023-02-11T09:59:23.965Z,6.93
2023-02-11T10:03:42.688Z,7.02
2023-02-11T10:07:52.629Z,6.94
2023-02-11T10:12:10.663Z,7.01
2023-02-11T10:16:29.667Z,6.98
2023-02-11T10:20:37.798Z,7.03
2023-02-11T10:24:43.870Z,7.00
2023-02-11T10:28:50.717Z,6.98
2023-02-11T10:32:58.852Z,7.04
2023-02-11T10:37:01.897Z,7.05
2023-02-11T10:41:05.385Z,7.03
2023-02-11T10:45:18.777Z,7.08
2023-02-11T10:49:36.335Z,7.13
2023-02-11T10:53:39.722Z,7.15
2023-02-11T10:57:44.952Z,7.13
2023-02-11T11:01:52.104Z,7.15
2023-02-11T11:05:58.878Z,7.23
2023-02-11T11:10:04.564Z,7.23
2023-02-11T11:14:20.468Z,7.22
2023-02-11T11:18:24.866Z,7.23
2023-02-11T11:22:27.909Z,7.22
2023-02-11T11:26:42.549Z,7.26
2023-02-11T11:30:45.719Z,7.25
2023-02-11T11:34:54.130Z,7.36
2023-02-11T11:38:59.931Z,7.36
2023-02-11T11:43:20.246Z,7.40
2023-02-11T11:47:37.226Z,7.44
2023-02-11T11:51:46.928Z,7.55
2023-02-11T11:55:59.762Z,7.50
2023-02-11T12:00:03.024Z,7.47
2023-02-11T12:04:27.385Z,7.48
2023-02-11T12:08:43.814Z,7.55
2023-02-11T12:12:56.624Z,7.62
2023-02-11T12:17:08.900Z,7.68
2023-02-11T12:21:26.145Z,7.67
2023-02-11T12:25:36.909Z,7.68
2023-02-11T12:29:51.358Z,7.66
2023-02-11T12:34:17.241Z,7.68
2023-02-11T12:38:53.501Z,7.71
2023-02-11T12:43:17.164Z,7.91
2023-02-11T12:47:29.149Z,7.88
2023-02-11T12:51:46.264Z,7.88
2023-02-11T12:55:55.047Z,7.92
2023-02-11T13:00:05.015Z,7.92
2023-02-11T13:04:14.825Z,7.95
2023-02-11T13:08:25.091Z,7.97
2023-02-11T13:12:48.973Z,8.04
2023-02-11T13:16:55.091Z,7.96
2023-02-11T13:21:08.586Z,8.11
2023-02-11T13:25:23.598Z,8.19
2023-02-11T13:29:39.490Z,8.31
2023-02-11T13:33:45.881Z,8.41
2023-02-11T13:37:49.195Z,8.43
2023-02-11T13:41:52.977Z,8.46
2023-02-11T13:46:00.279Z,8.56
2023-02-11T13:50:09.701Z,8.60
2023-02-11T13:54:24.441Z,8.68
2023-02-11T13:58:40.066Z,8.62
2023-02-11T14:03:00.616Z,8.55
2023-02-11T14:07:48.335Z,8.55
2023-02-11T14:11:55.313Z,8.61
2023-02-11T14:16:06.979Z,8.69
2023-02-11T14:20:36.509Z,8.65
2023-02-11T14:24:51.065Z,8.68
2023-02-11T14:29:01.644Z,8.70
2023-02-11T14:33:22.640Z,8.61
2023-02-11T14:37:39.321Z,8.66
2023-02-11T14:41:47.116Z,8.67
2023-02-11T14:45:52.767Z,8.72
2023-02-11T14:49:56.262Z,8.74
2023-02-11T14:54:03.870Z,8.77
2023-02-11T14:58:16.672Z,8.72
2023-02-11T15:02:26.369Z,8.77
2023-02-11T15:06:32.786Z,8.79
2023-02-11T15:10:39.164Z,8.77
2023-02-11T15:14:49.002Z,8.66
2023-02-11T15:18:54.449Z,8.71
2023-02-11T15:23:00.966Z,8.66
2023-02-11T15:27:11.842Z,8.68
2023-02-11T15:31:19.777Z,8.71
2023-02-11T15:35:22.957Z,8.71
2023-02-11T15:39:36.631Z,8.69
2023-02-11T15:43:45.324Z,8.63
2023-02-11T15:47:52.188Z,8.55
2023-02-11T15:51:57.211Z,8.55
2023-02-11T15:56:05.556Z,8.51
2023-02-11T16:00:16.630Z,8.44
2023-02-11T16:04:24.426Z,8.40
2023-02-11T16:08:32.810Z,8.41
2023-02-11T16:12:36.024Z,8.35
2023-02-11T16:16:39.234Z,8.35
2023-02-11T16:20:48.541Z,8.31
2023-02-11T16:24:54.298Z,8.31
2023-02-11T16:29:08.042Z,8.28
2023-02-11T16:33:12.724Z,8.26
2023-02-11T16:37:17.754Z,8.21
2023-02-11T16:41:21.032Z,8.19
2023-02-11T16:45:24.093Z,8.20
2023-02-11T16:49:29.359Z,8.17
2023-02-11T16:53:33.862Z,8.16
2023-02-11T16:57:36.978Z,8.15
2023-02-11T17:01:41.397Z,8.13
2023-02-11T17:05:54.964Z,8.09
2023-02-11T17:09:59.703Z,8.09
2023-02-11T17:14:02.730Z,8.11
2023-02-11T17:18:06.088Z,8.08
2023-02-11T17:22:10.085Z,8.07
2023-02-11T17:26:14.469Z,8.05
2023-02-11T17:30:17.775Z,8.04
2023-02-11T17:34:21.203Z,8.03
2023-02-11T17:38:24.262Z,8.02
2023-02-11T17:42:29.196Z,7.95
2023-02-11T17:46:32.557Z,7.94
2023-02-11T17:50:36.784Z,7.92
2023-02-11T17:54:39.958Z,7.90
2023-02-11T17:58:44.429Z,7.94
2023-02-11T18:02:47.479Z,7.86
2023-02-11T18:06:53.553Z,7.88
2023-02-11T18:10:56.803Z,7.90
2023-02-11T18:15:01.221Z,7.88
2023-02-11T18:19:06.578Z,7.91
2023-02-11T18:23:09.949Z,7.90
2023-02-11T18:27:13.597Z,7.90
2023-02-11T18:31:18.488Z,7.90
2023-02-11T18:35:21.863Z,7.83
2023-02-11T18:39:26.486Z,7.87
2023-02-11T18:43:31.675Z,7.83
2023-02-11T18:47:36.357Z,7.79
2023-02-11T18:51:39.415Z,7.81
2023-02-11T18:55:44.571Z,7.76
2023-02-11T18:59:49.118Z,7.76
2023-02-11T19:03:53.997Z,7.76
2023-02-11T19:07:57.926Z,7.75
2023-02-11T19:12:02.047Z,7.77
2023-02-11T19:16:16.705Z,7.72
2023-02-11T19:20:21.410Z,7.70
2023-02-11T19:24:25.268Z,7.70
2023-02-11T19:28:28.330Z,7.71
2023-02-11T19:32:31.962Z,7.71
2023-02-11T19:36:36.861Z,7.67
2023-02-11T19:40:39.962Z,7.68
2023-02-11T19:44:42.997Z,7.65
2023-02-11T19:48:46.037Z,7.62
2023-02-11T19:52:50.504Z,7.65
2023-02-11T19:56:54.173Z,7.63
2023-02-11T20:01:04.581Z,7.64
2023-02-11T20:05:08.559Z,7.65
2023-02-11T20:09:15.354Z,7.59
2023-02-11T20:13:18.394Z,7.59
2023-02-11T20:17:21.465Z,7.59
2023-02-11T20:21:26.752Z,7.58
2023-02-11T20:25:31.182Z,7.58
2023-02-11T20:29:34.260Z,7.58
2023-02-11T20:33:37.852Z,7.58
2023-02-11T20:37:43.777Z,7.57
2023-02-11T20:41:48.710Z,7.59
2023-02-11T20:45:52.050Z,7.54
2023-02-11T20:49:56.084Z,7.55
2023-02-11T20:54:00.205Z,7.59
2023-02-11T20:58:05.699Z,7.59
2023-02-11T21:02:12.540Z,7.61
2023-02-11T21:06:15.810Z,7.62
2023-02-11T21:10:19.299Z,7.62
2023-02-11T21:14:25.437Z,7.60
2023-02-11T21:18:28.492Z,7.57
2023-02-11T21:22:31.728Z,7.57
2023-02-11T21:26:35.415Z,7.56
2023-02-11T21:30:40.600Z,7.56
2023-02-11T21:34:43.646Z,7.55
2023-02-11T21:38:46.714Z,7.53
2023-02-11T21:42:49.745Z,7.53
2023-02-11T21:46:54.194Z,7.50
2023-02-11T21:50:57.249Z,7.51
2023-02-11T21:55:00.261Z,7.53
2023-02-11T21:59:03.872Z,7.56
2023-02-11T22:03:08.291Z,7.58
2023-02-11T22:07:12.693Z,7.56
2023-02-11T22:11:16.074Z,7.58
2023-02-11T22:15:19.772Z,7.58
2023-02-11T22:19:25.091Z,7.48
2023-02-11T22:23:28.675Z,7.33
2023-02-11T22:27:31.804Z,7.47
2023-02-11T22:31:36.057Z,7.46
2023-02-11T22:35:40.582Z,7.47
2023-02-11T22:39:43.909Z,7.55
2023-02-11T22:43:47.267Z,7.57
2023-02-11T22:47:50.294Z,7.55
2023-02-11T22:51:54.670Z,7.56
2023-02-11T22:55:58.277Z,7.59
2023-02-11T23:00:01.316Z,7.47
2023-02-11T23:04:06.342Z,7.47
2023-02-11T23:08:12.323Z,7.54
2023-02-11T23:12:15.350Z,7.53
2023-02-11T23:16:21.110Z,7.52
2023-02-11T23:20:24.455Z,7.53
2023-02-11T23:24:28.895Z,7.52
2023-02-11T23:28:32.420Z,7.51
2023-02-11T23:32:38.522Z,7.40
2023-02-11T23:36:41.561Z,7.49
2023-02-11T23:40:45.932Z,7.50
2023-02-11T23:44:48.948Z,7.52
2023-02-11T23:48:53.121Z,7.54
2023-02-11T23:52:56.255Z,7.56
2023-02-11T23:57:00.621Z,7.47
